sensor_id;sensor_type;location;lat;lon;timestamp;temperature;humidity
56123;DHT22;42426;46.104;19.656;2023-04-15T00:00:15;256.20;2252.80
56123;DHT22;42426;46.104;19.656;2023-04-15T00:02:41;256.20;2252.80
56123;DHT22;42426;46.104;19.656;2023-04-15T00:05:08;256.20;2252.80
56123;DHT22;42426;46.104;19.656;2023-04-15T00:07:35;256.20;2252.80
56123;DHT22;42426;46.104;19.656;2023-04-15T00:10:01;256.20;2252.80
56123;DHT22;42426;46.104;19.656;2023-04-15T00:12:27;256.20;2252.80
56123;DHT22;42426;46.104;19.656;2023-04-15T00:14:55;256.30;2252.80
56123;DHT22;42426;46.104;19.656;2023-04-15T00:17:21;256.20;2252.80
56123;DHT22;42426;46.104;19.656;2023-04-15T00:20:02;256.20;2252.80
56123;DHT22;42426;46.104;19.656;2023-04-15T00:22:37;256.20;2252.80
56123;DHT22;42426;46.104;19.656;2023-04-15T00:25:02;256.20;2252.80
56123;DHT22;42426;46.104;19.656;2023-04-15T00:27:28;256.20;2252.80
56123;DHT22;42426;46.104;19.656;2023-04-15T00:29:55;256.20;2252.80
56123;DHT22;42426;46.104;19.656;2023-04-15T00:32:26;256.10;2252.80
56123;DHT22;42426;46.104;19.656;2023-04-15T00:34:52;256.10;2252.80
56123;DHT22;42426;46.104;19.656;2023-04-15T00:37:18;256.10;2252.80
56123;DHT22;42426;46.104;19.656;2023-04-15T00:39:44;256.00;2252.80
56123;DHT22;42426;46.104;19.656;2023-04-15T00:42:12;256.00;2252.80
56123;DHT22;42426;46.104;19.656;2023-04-15T00:44:38;231.30;2252.80
56123;DHT22;42426;46.104;19.656;2023-04-15T00:47:04;231.30;2252.80
56123;DHT22;42426;46.104;19.656;2023-04-15T00:49:33;231.30;2252.80
56123;DHT22;42426;46.104;19.656;2023-04-15T00:52:02;256.00;2252.80
56123;DHT22;42426;46.104;19.656;2023-04-15T00:54:31;231.30;2252.80
56123;DHT22;42426;46.104;19.656;2023-04-15T00:56:57;231.30;2252.80
56123;DHT22;42426;46.104;19.656;2023-04-15T00:59:24;231.10;2252.80
56123;DHT22;42426;46.104;19.656;2023-04-15T01:01:53;231.20;2252.80
56123;DHT22;42426;46.104;19.656;2023-04-15T01:04:21;231.20;2252.80
56123;DHT22;42426;46.104;19.656;2023-04-15T01:06:47;231.20;2252.80
56123;DHT22;42426;46.104;19.656;2023-04-15T01:09:13;231.10;2252.80
56123;DHT22;42426;46.104;19.656;2023-04-15T01:11:39;231.00;2252.80
56123;DHT22;42426;46.104;19.656;2023-04-15T01:14:08;231.00;2252.80
56123;DHT22;42426;46.104;19.656;2023-04-15T01:16:36;231.00;2252.80
56123;DHT22;42426;46.104;19.656;2023-04-15T01:19:07;231.00;2252.80
56123;DHT22;42426;46.104;19.656;2023-04-15T01:21:42;231.00;2252.80
56123;DHT22;42426;46.104;19.656;2023-04-15T01:24:08;231.00;2252.80
56123;DHT22;42426;46.104;19.656;2023-04-15T01:26:39;231.00;2252.80
56123;DHT22;42426;46.104;19.656;2023-04-15T01:29:06;231.00;2252.80
56123;DHT22;42426;46.104;19.656;2023-04-15T01:31:37;231.00;2252.80
56123;DHT22;42426;46.104;19.656;2023-04-15T01:34:03;231.00;2252.80
56123;DHT22;42426;46.104;19.656;2023-04-15T01:36:32;230.80;2252.80
56123;DHT22;42426;46.104;19.656;2023-04-15T01:38:58;230.80;2252.80
56123;DHT22;42426;46.104;19.656;2023-04-15T01:41:25;230.70;2252.80
56123;DHT22;42426;46.104;19.656;2023-04-15T01:43:54;230.70;2252.80
56123;DHT22;42426;46.104;19.656;2023-04-15T01:46:20;230.80;2252.80
56123;DHT22;42426;46.104;19.656;2023-04-15T01:48:46;230.70;2252.80
56123;DHT22;42426;46.104;19.656;2023-04-15T01:51:11;230.70;2252.80
56123;DHT22;42426;46.104;19.656;2023-04-15T01:53:37;230.70;2252.80
56123;DHT22;42426;46.104;19.656;2023-04-15T01:56:03;230.70;2252.80
56123;DHT22;42426;46.104;19.656;2023-04-15T01:58:29;230.70;2252.80
56123;DHT22;42426;46.104;19.656;2023-04-15T02:00:55;230.70;2252.80
56123;DHT22;42426;46.104;19.656;2023-04-15T02:03:21;230.70;2252.80
56123;DHT22;42426;46.104;19.656;2023-04-15T02:05:47;230.60;2252.80
56123;DHT22;42426;46.104;19.656;2023-04-15T02:08:13;230.60;2252.80
56123;DHT22;42426;46.104;19.656;2023-04-15T02:10:39;230.60;2252.80
56123;DHT22;42426;46.104;19.656;2023-04-15T02:13:05;230.60;2252.80
56123;DHT22;42426;46.104;19.656;2023-04-15T02:15:30;230.60;2252.80
56123;DHT22;42426;46.104;19.656;2023-04-15T02:17:57;230.60;2252.80
56123;DHT22;42426;46.104;19.656;2023-04-15T02:20:25;230.60;2252.80
56123;DHT22;42426;46.104;19.656;2023-04-15T02:22:51;230.60;2252.80
56123;DHT22;42426;46.104;19.656;2023-04-15T02:25:16;230.60;2252.80
56123;DHT22;42426;46.104;19.656;2023-04-15T02:27:42;230.60;2252.80
56123;DHT22;42426;46.104;19.656;2023-04-15T02:30:09;230.60;2252.80
56123;DHT22;42426;46.104;19.656;2023-04-15T02:32:35;230.60;2252.80
56123;DHT22;42426;46.104;19.656;2023-04-15T02:35:06;230.60;2252.80
56123;DHT22;42426;46.104;19.656;2023-04-15T02:37:33;230.60;2252.80
56123;DHT22;42426;46.104;19.656;2023-04-15T02:40:07;230.60;2252.80
56123;DHT22;42426;46.104;19.656;2023-04-15T02:42:34;230.60;2252.80
56123;DHT22;42426;46.104;19.656;2023-04-15T02:45:04;230.50;2252.80
56123;DHT22;42426;46.104;19.656;2023-04-15T02:47:44;230.50;2252.80
56123;DHT22;42426;46.104;19.656;2023-04-15T02:50:12;230.40;2252.80
56123;DHT22;42426;46.104;19.656;2023-04-15T02:52:41;230.40;2252.80
56123;DHT22;42426;46.104;19.656;2023-04-15T02:55:08;230.40;2252.80
56123;DHT22;42426;46.104;19.656;2023-04-15T02:57:34;205.70;2252.80
56123;DHT22;42426;46.104;19.656;2023-04-15T03:00:05;205.70;2252.80
56123;DHT22;42426;46.104;19.656;2023-04-15T03:02:37;205.70;2252.80
56123;DHT22;42426;46.104;19.656;2023-04-15T03:05:04;205.70;2252.80
56123;DHT22;42426;46.104;19.656;2023-04-15T03:07:31;205.60;2252.80
56123;DHT22;42426;46.104;19.656;2023-04-15T03:09:56;205.60;2252.80
56123;DHT22;42426;46.104;19.656;2023-04-15T03:12:22;205.60;2252.80
56123;DHT22;42426;46.104;19.656;2023-04-15T03:14:48;205.60;2252.80
56123;DHT22;42426;46.104;19.656;2023-04-15T03:17:13;205.60;2252.80
56123;DHT22;42426;46.104;19.656;2023-04-15T03:19:40;205.70;2252.80
56123;DHT22;42426;46.104;19.656;2023-04-15T03:22:09;205.60;2252.80
56123;DHT22;42426;46.104;19.656;2023-04-15T03:24:37;205.60;2252.80
56123;DHT22;42426;46.104;19.656;2023-04-15T03:27:03;205.60;2252.80
56123;DHT22;42426;46.104;19.656;2023-04-15T03:29:34;205.60;2252.80
56123;DHT22;42426;46.104;19.656;2023-04-15T03:32:00;205.60;2252.80
56123;DHT22;42426;46.104;19.656;2023-04-15T03:34:26;205.60;2252.80
56123;DHT22;42426;46.104;19.656;2023-04-15T03:36:52;205.60;2252.80
56123;DHT22;42426;46.104;19.656;2023-04-15T03:39:17;205.60;2252.80
56123;DHT22;42426;46.104;19.656;2023-04-15T03:41:46;205.60;2252.80
56123;DHT22;42426;46.104;19.656;2023-04-15T03:44:12;205.50;2252.80
56123;DHT22;42426;46.104;19.656;2023-04-15T03:46:38;205.50;2252.80
56123;DHT22;42426;46.104;19.656;2023-04-15T03:49:05;205.50;2252.80
56123;DHT22;42426;46.104;19.656;2023-04-15T03:51:31;205.50;2252.80
56123;DHT22;42426;46.104;19.656;2023-04-15T03:53:57;205.50;2252.80
56123;DHT22;42426;46.104;19.656;2023-04-15T03:56:23;205.50;2252.80
56123;DHT22;42426;46.104;19.656;2023-04-15T03:58:49;205.50;2252.80
56123;DHT22;42426;46.104;19.656;2023-04-15T04:01:18;205.50;2252.80
56123;DHT22;42426;46.104;19.656;2023-04-15T04:03:46;205.50;2252.80
56123;DHT22;42426;46.104;19.656;2023-04-15T04:06:15;205.50;2252.80
56123;DHT22;42426;46.104;19.656;2023-04-15T04:08:41;205.50;2252.80
56123;DHT22;42426;46.104;19.656;2023-04-15T04:11:07;205.50;2252.80
56123;DHT22;42426;46.104;19.656;2023-04-15T04:13:32;205.40;2252.80
56123;DHT22;42426;46.104;19.656;2023-04-15T04:15:58;205.40;2252.80
56123;DHT22;42426;46.104;19.656;2023-04-15T04:18:24;205.40;2252.80
56123;DHT22;42426;46.104;19.656;2023-04-15T04:20:50;205.50;2252.80
56123;DHT22;42426;46.104;19.656;2023-04-15T04:23:15;205.40;2252.80
56123;DHT22;42426;46.104;19.656;2023-04-15T04:25:44;205.50;2252.80
56123;DHT22;42426;46.104;19.656;2023-04-15T04:28:10;205.50;2252.80
56123;DHT22;42426;46.104;19.656;2023-04-15T04:30:36;205.50;2252.80
56123;DHT22;42426;46.104;19.656;2023-04-15T04:33:02;205.40;2252.80
56123;DHT22;42426;46.104;19.656;2023-04-15T04:35:28;205.40;2252.80
56123;DHT22;42426;46.104;19.656;2023-04-15T04:37:54;205.40;2252.80
56123;DHT22;42426;46.104;19.656;2023-04-15T04:40:19;205.40;2252.80
56123;DHT22;42426;46.104;19.656;2023-04-15T04:42:45;205.40;2252.80
56123;DHT22;42426;46.104;19.656;2023-04-15T04:45:11;205.40;2252.80
56123;DHT22;42426;46.104;19.656;2023-04-15T04:47:37;205.40;2252.80
56123;DHT22;42426;46.104;19.656;2023-04-15T04:50:03;205.40;2252.80
56123;DHT22;42426;46.104;19.656;2023-04-15T04:52:29;205.40;2252.80
56123;DHT22;42426;46.104;19.656;2023-04-15T04:54:55;205.50;2252.80
56123;DHT22;42426;46.104;19.656;2023-04-15T04:57:21;205.50;2252.80
56123;DHT22;42426;46.104;19.656;2023-04-15T04:59:47;205.60;2252.80
56123;DHT22;42426;46.104;19.656;2023-04-15T05:02:12;205.60;2252.80
56123;DHT22;42426;46.104;19.656;2023-04-15T05:04:38;205.50;2252.80
56123;DHT22;42426;46.104;19.656;2023-04-15T05:07:04;205.60;2252.80
56123;DHT22;42426;46.104;19.656;2023-04-15T05:09:30;205.50;2252.80
56123;DHT22;42426;46.104;19.656;2023-04-15T05:11:57;205.60;2252.80
56123;DHT22;42426;46.104;19.656;2023-04-15T05:14:23;205.60;2252.80
56123;DHT22;42426;46.104;19.656;2023-04-15T05:16:49;205.60;2252.80
56123;DHT22;42426;46.104;19.656;2023-04-15T05:19:17;205.70;2252.80
56123;DHT22;42426;46.104;19.656;2023-04-15T05:21:43;205.70;2252.80
56123;DHT22;42426;46.104;19.656;2023-04-15T05:24:09;205.70;2252.80
56123;DHT22;42426;46.104;19.656;2023-04-15T05:26:35;205.70;2252.80
56123;DHT22;42426;46.104;19.656;2023-04-15T05:29:01;230.40;2252.80
56123;DHT22;42426;46.104;19.656;2023-04-15T05:31:27;230.50;2252.80
56123;DHT22;42426;46.104;19.656;2023-04-15T05:33:54;230.50;2252.80
56123;DHT22;42426;46.104;19.656;2023-04-15T05:36:19;230.60;2252.80
56123;DHT22;42426;46.104;19.656;2023-04-15T05:38:45;230.60;2252.80
56123;DHT22;42426;46.104;19.656;2023-04-15T05:41:11;230.70;2252.80
56123;DHT22;42426;46.104;19.656;2023-04-15T05:43:37;230.80;2252.80
56123;DHT22;42426;46.104;19.656;2023-04-15T05:46:03;230.90;2252.80
56123;DHT22;42426;46.104;19.656;2023-04-15T05:48:28;230.90;2252.80
56123;DHT22;42426;46.104;19.656;2023-04-15T05:50:54;231.00;2252.80
56123;DHT22;42426;46.104;19.656;2023-04-15T05:53:20;231.10;2252.80
56123;DHT22;42426;46.104;19.656;2023-04-15T05:55:46;231.20;2252.80
56123;DHT22;42426;46.104;19.656;2023-04-15T05:58:11;231.20;2252.80
56123;DHT22;42426;46.104;19.656;2023-04-15T06:00:37;231.30;2252.80
56123;DHT22;42426;46.104;19.656;2023-04-15T06:03:03;231.30;2252.80
56123;DHT22;42426;46.104;19.656;2023-04-15T06:05:29;256.00;2252.80
56123;DHT22;42426;46.104;19.656;2023-04-15T06:07:54;256.10;2252.80
56123;DHT22;42426;46.104;19.656;2023-04-15T06:10:20;256.20;2252.80
56123;DHT22;42426;46.104;19.656;2023-04-15T06:12:46;256.20;2252.80
56123;DHT22;42426;46.104;19.656;2023-04-15T06:15:18;256.30;2252.80
56123;DHT22;42426;46.104;19.656;2023-04-15T06:17:44;256.40;2252.80
56123;DHT22;42426;46.104;19.656;2023-04-15T06:20:11;256.40;2252.80
56123;DHT22;42426;46.104;19.656;2023-04-15T06:22:37;281.70;2278.40
56123;DHT22;42426;46.104;19.656;2023-04-15T06:25:06;256.60;2252.80
56123;DHT22;42426;46.104;19.656;2023-04-15T06:27:35;256.70;2252.80
56123;DHT22;42426;46.104;19.656;2023-04-15T06:30:01;256.70;2252.80
56123;DHT22;42426;46.104;19.656;2023-04-15T06:32:26;256.80;2252.80
56123;DHT22;42426;46.104;19.656;2023-04-15T06:35:15;256.90;2252.80
56123;DHT22;42426;46.104;19.656;2023-04-15T06:37:48;256.90;2252.80
56123;DHT22;42426;46.104;19.656;2023-04-15T06:40:14;281.60;2278.40
56123;DHT22;42426;46.104;19.656;2023-04-15T06:42:40;281.70;2278.40
56123;DHT22;42426;46.104;19.656;2023-04-15T06:45:06;281.70;2278.40
56123;DHT22;42426;46.104;19.656;2023-04-15T06:47:53;282.10;2278.40
56123;DHT22;42426;46.104;19.656;2023-04-15T06:50:19;282.10;2278.40
56123;DHT22;42426;46.104;19.656;2023-04-15T06:52:45;282.10;2278.40
56123;DHT22;42426;46.104;19.656;2023-04-15T07:07:26;282.50;2278.40
56123;DHT22;42426;46.104;19.656;2023-04-15T07:09:52;282.30;2278.40
56123;DHT22;42426;46.104;19.656;2023-04-15T07:12:18;282.40;2278.40
56123;DHT22;42426;46.104;19.656;2023-04-15T07:14:53;282.40;2278.40
56123;DHT22;42426;46.104;19.656;2023-04-15T07:17:24;282.40;2278.40
56123;DHT22;42426;46.104;19.656;2023-04-15T07:19:52;282.40;2278.40
56123;DHT22;42426;46.104;19.656;2023-04-15T07:22:18;282.40;2278.40
56123;DHT22;42426;46.104;19.656;2023-04-15T07:24:44;282.50;2278.40
56123;DHT22;42426;46.104;19.656;2023-04-15T07:27:10;282.40;2278.40
56123;DHT22;42426;46.104;19.656;2023-04-15T07:29:36;307.20;2304.00
56123;DHT22;42426;46.104;19.656;2023-04-15T07:32:02;307.20;2304.00
56123;DHT22;42426;46.104;19.656;2023-04-15T07:34:28;307.30;2304.00
56123;DHT22;42426;46.104;19.656;2023-04-15T07:36:54;307.40;2304.00
56123;DHT22;42426;46.104;19.656;2023-04-15T07:39:22;307.40;2304.00
56123;DHT22;42426;46.104;19.656;2023-04-15T07:41:48;307.40;2304.00
56123;DHT22;42426;46.104;19.656;2023-04-15T07:44:14;307.50;2304.00
56123;DHT22;42426;46.104;19.656;2023-04-15T07:46:40;307.50;2304.00
56123;DHT22;42426;46.104;19.656;2023-04-15T07:49:06;307.50;2304.00
56123;DHT22;42426;46.104;19.656;2023-04-15T07:51:32;307.50;2304.00
56123;DHT22;42426;46.104;19.656;2023-04-15T07:53:57;307.60;2304.00
56123;DHT22;42426;46.104;19.656;2023-04-15T07:56:23;307.60;2304.00
56123;DHT22;42426;46.104;19.656;2023-04-15T07:58:49;307.60;2304.00
56123;DHT22;42426;46.104;19.656;2023-04-15T08:01:15;307.60;2304.00
56123;DHT22;42426;46.104;19.656;2023-04-15T08:03:41;307.60;2304.00
56123;DHT22;42426;46.104;19.656;2023-04-15T08:06:07;307.70;2304.00
56123;DHT22;42426;46.104;19.656;2023-04-15T08:08:35;307.70;2304.00
56123;DHT22;42426;46.104;19.656;2023-04-15T08:11:01;307.90;2304.00
56123;DHT22;42426;46.104;19.656;2023-04-15T08:13:27;308.10;2304.00
56123;DHT22;42426;46.104;19.656;2023-04-15T08:16:16;308.00;2304.00
56123;DHT22;42426;46.104;19.656;2023-04-15T08:18:46;308.10;2304.00
56123;DHT22;42426;46.104;19.656;2023-04-15T08:21:12;308.10;2278.40
56123;DHT22;42426;46.104;19.656;2023-04-15T08:23:38;308.10;2304.00
56123;DHT22;42426;46.104;19.656;2023-04-15T08:26:07;308.10;2304.00
56123;DHT22;42426;46.104;19.656;2023-04-15T08:28:33;332.80;2329.60
56123;DHT22;42426;46.104;19.656;2023-04-15T08:31:02;332.90;2304.00
56123;DHT22;42426;46.104;19.656;2023-04-15T08:33:31;333.00;2227.20
56123;DHT22;42426;46.104;19.656;2023-04-15T08:35:58;333.00;2227.20
56123;DHT22;42426;46.104;19.656;2023-04-15T08:38:27;333.00;2227.20
56123;DHT22;42426;46.104;19.656;2023-04-15T08:40:53;333.10;2201.60
56123;DHT22;42426;46.104;19.656;2023-04-15T08:43:22;333.10;2201.60
56123;DHT22;42426;46.104;19.656;2023-04-15T08:45:53;333.20;2201.60
56123;DHT22;42426;46.104;19.656;2023-04-15T08:48:20;333.20;2201.60
56123;DHT22;42426;46.104;19.656;2023-04-15T08:50:49;333.30;2201.60
56123;DHT22;42426;46.104;19.656;2023-04-15T08:53:15;333.30;2176.00
56123;DHT22;42426;46.104;19.656;2023-04-15T08:55:45;333.40;2176.00
56123;DHT22;42426;46.104;19.656;2023-04-15T08:58:12;333.50;2150.40
56123;DHT22;42426;46.104;19.656;2023-04-15T09:00:41;333.50;2150.40
56123;DHT22;42426;46.104;19.656;2023-04-15T09:03:10;333.50;2124.80
56123;DHT22;42426;46.104;19.656;2023-04-15T09:05:37;358.40;2073.60
56123;DHT22;42426;46.104;19.656;2023-04-15T09:08:04;333.70;2099.20
56123;DHT22;42426;46.104;19.656;2023-04-15T09:10:31;333.60;2099.20
56123;DHT22;42426;46.104;19.656;2023-04-15T09:12:57;333.60;2124.80
56123;DHT22;42426;46.104;19.656;2023-04-15T09:15:26;333.70;2099.20
56123;DHT22;42426;46.104;19.656;2023-04-15T09:17:57;358.40;2073.60
56123;DHT22;42426;46.104;19.656;2023-04-15T09:20:23;358.50;2099.20
56123;DHT22;42426;46.104;19.656;2023-04-15T09:22:49;358.50;2073.60
56123;DHT22;42426;46.104;19.656;2023-04-15T09:27:56;359.00;2022.40
56123;DHT22;42426;46.104;19.656;2023-04-15T09:30:23;358.80;1996.80
56123;DHT22;42426;46.104;19.656;2023-04-15T09:32:56;358.70;2022.40
56123;DHT22;42426;46.104;19.656;2023-04-15T09:35:23;358.70;1996.80
56123;DHT22;42426;46.104;19.656;2023-04-15T09:37:51;358.70;1971.20
56123;DHT22;42426;46.104;19.656;2023-04-15T09:40:39;358.60;1996.80
56123;DHT22;42426;46.104;19.656;2023-04-15T09:43:08;358.60;1971.20
56123;DHT22;42426;46.104;19.656;2023-04-15T09:45:34;358.60;1996.80
56123;DHT22;42426;46.104;19.656;2023-04-15T09:50:42;358.40;1971.20
56123;DHT22;42426;46.104;19.656;2023-04-15T09:53:09;358.40;1996.80
56123;DHT22;42426;46.104;19.656;2023-04-15T09:55:37;358.40;1971.20
56123;DHT22;42426;46.104;19.656;2023-04-15T09:58:08;358.40;1996.80
56123;DHT22;42426;46.104;19.656;2023-04-15T10:00:35;358.40;2022.40
56123;DHT22;42426;46.104;19.656;2023-04-15T10:03:04;358.60;2022.40
56123;DHT22;42426;46.104;19.656;2023-04-15T10:05:30;358.70;1996.80
56123;DHT22;42426;46.104;19.656;2023-04-15T10:07:57;358.70;2022.40
56123;DHT22;42426;46.104;19.656;2023-04-15T10:10:23;358.90;1996.80
56123;DHT22;42426;46.104;19.656;2023-04-15T10:12:50;358.80;1971.20
56123;DHT22;42426;46.104;19.656;2023-04-15T10:15:17;358.80;1971.20
56123;DHT22;42426;46.104;19.656;2023-04-15T11:56:27;384.70;1817.60
56123;DHT22;42426;46.104;19.656;2023-04-15T11:58:57;384.50;1817.60
56123;DHT22;42426;46.104;19.656;2023-04-15T12:01:34;384.50;1817.60
56123;DHT22;42426;46.104;19.656;2023-04-15T12:04:09;384.50;1817.60
56123;DHT22;42426;46.104;19.656;2023-04-15T12:06:38;384.50;1817.60
56123;DHT22;42426;46.104;19.656;2023-04-15T12:09:11;384.50;1817.60
56123;DHT22;42426;46.104;19.656;2023-04-15T12:11:46;384.40;1868.80
56123;DHT22;42426;46.104;19.656;2023-04-15T12:16:57;384.40;1843.20
56123;DHT22;42426;46.104;19.656;2023-04-15T12:19:35;384.50;1843.20
56123;DHT22;42426;46.104;19.656;2023-04-15T12:22:19;384.40;1868.80
56123;DHT22;42426;46.104;19.656;2023-04-15T12:24:45;384.50;1868.80
56123;DHT22;42426;46.104;19.656;2023-04-15T12:27:14;384.70;1792.00
56123;DHT22;42426;46.104;19.656;2023-04-15T12:29:42;384.80;1843.20
56123;DHT22;42426;46.104;19.656;2023-04-15T12:32:16;384.50;1792.00
56123;DHT22;42426;46.104;19.656;2023-04-15T12:34:50;384.90;1817.60
56123;DHT22;42426;46.104;19.656;2023-04-15T12:37:16;384.90;1843.20
56123;DHT22;42426;46.104;19.656;2023-04-15T12:39:44;409.60;1843.20
56123;DHT22;42426;46.104;19.656;2023-04-15T12:42:16;409.60;1843.20
56123;DHT22;42426;46.104;19.656;2023-04-15T12:44:42;410.30;1817.60
56123;DHT22;42426;46.104;19.656;2023-04-15T12:47:13;384.90;1792.00
56123;DHT22;42426;46.104;19.656;2023-04-15T12:49:39;384.90;1792.00
56123;DHT22;42426;46.104;19.656;2023-04-15T12:52:05;384.90;1792.00
56123;DHT22;42426;46.104;19.656;2023-04-15T12:54:32;384.80;1817.60
56123;DHT22;42426;46.104;19.656;2023-04-15T12:57:01;384.70;1817.60
56123;DHT22;42426;46.104;19.656;2023-04-15T12:59:27;384.60;1817.60
56123;DHT22;42426;46.104;19.656;2023-04-15T13:01:53;384.50;1817.60
56123;DHT22;42426;46.104;19.656;2023-04-15T13:04:32;384.50;1792.00
56123;DHT22;42426;46.104;19.656;2023-04-15T13:06:58;384.40;1817.60
56123;DHT22;42426;46.104;19.656;2023-04-15T13:09:23;384.40;1817.60
56123;DHT22;42426;46.104;19.656;2023-04-15T13:11:50;384.40;1843.20
56123;DHT22;42426;46.104;19.656;2023-04-15T13:14:22;384.40;1843.20
56123;DHT22;42426;46.104;19.656;2023-04-15T13:16:58;384.30;1843.20
56123;DHT22;42426;46.104;19.656;2023-04-15T13:19:24;384.30;1843.20
56123;DHT22;42426;46.104;19.656;2023-04-15T13:21:50;384.30;1843.20
56123;DHT22;42426;46.104;19.656;2023-04-15T13:24:15;384.30;1817.60
56123;DHT22;42426;46.104;19.656;2023-04-15T13:26:41;384.20;1843.20
56123;DHT22;42426;46.104;19.656;2023-04-15T13:29:07;384.10;1817.60
56123;DHT22;42426;46.104;19.656;2023-04-15T13:31:36;384.10;1843.20
56123;DHT22;42426;46.104;19.656;2023-04-15T13:34:08;384.10;1868.80
56123;DHT22;42426;46.104;19.656;2023-04-15T13:36:33;384.00;1868.80
56123;DHT22;42426;46.104;19.656;2023-04-15T13:38:59;384.00;1894.40
56123;DHT22;42426;46.104;19.656;2023-04-15T13:41:25;384.00;1894.40
56123;DHT22;42426;46.104;19.656;2023-04-15T13:43:54;384.00;1894.40
56123;DHT22;42426;46.104;19.656;2023-04-15T13:46:20;384.00;1920.00
56123;DHT22;42426;46.104;19.656;2023-04-15T13:48:45;384.10;1894.40
56123;DHT22;42426;46.104;19.656;2023-04-15T13:51:14;384.10;1894.40
56123;DHT22;42426;46.104;19.656;2023-04-15T13:53:42;384.10;1894.40
56123;DHT22;42426;46.104;19.656;2023-04-15T13:56:08;384.10;1920.00
56123;DHT22;42426;46.104;19.656;2023-04-15T13:58:46;384.10;1894.40
56123;DHT22;42426;46.104;19.656;2023-04-15T14:01:12;384.10;1894.40
56123;DHT22;42426;46.104;19.656;2023-04-15T14:03:38;384.10;1868.80
56123;DHT22;42426;46.104;19.656;2023-04-15T14:06:04;384.10;1894.40
56123;DHT22;42426;46.104;19.656;2023-04-15T14:08:33;384.10;1894.40
56123;DHT22;42426;46.104;19.656;2023-04-15T14:11:00;384.20;1894.40
56123;DHT22;42426;46.104;19.656;2023-04-15T14:13:26;384.30;1894.40
56123;DHT22;42426;46.104;19.656;2023-04-15T14:15:51;384.40;1920.00
56123;DHT22;42426;46.104;19.656;2023-04-15T14:18:17;384.40;1920.00
56123;DHT22;42426;46.104;19.656;2023-04-15T14:20:43;384.50;1843.20
56123;DHT22;42426;46.104;19.656;2023-04-15T14:23:08;384.70;1843.20
56123;DHT22;42426;46.104;19.656;2023-04-15T14:25:34;384.70;1868.80
56123;DHT22;42426;46.104;19.656;2023-04-15T14:28:01;384.80;1817.60
56123;DHT22;42426;46.104;19.656;2023-04-15T14:30:26;384.80;1817.60
56123;DHT22;42426;46.104;19.656;2023-04-15T14:32:52;384.90;1792.00
56123;DHT22;42426;46.104;19.656;2023-04-15T14:35:18;384.90;1817.60
56123;DHT22;42426;46.104;19.656;2023-04-15T14:37:43;409.60;1817.60
56123;DHT22;42426;46.104;19.656;2023-04-15T14:40:09;409.60;1792.00
56123;DHT22;42426;46.104;19.656;2023-04-15T14:42:53;409.60;1792.00
56123;DHT22;42426;46.104;19.656;2023-04-15T14:45:19;409.60;1817.60
56123;DHT22;42426;46.104;19.656;2023-04-15T14:47:46;384.90;1792.00
56123;DHT22;42426;46.104;19.656;2023-04-15T14:50:11;384.90;1792.00
56123;DHT22;42426;46.104;19.656;2023-04-15T14:52:37;384.90;1766.40
56123;DHT22;42426;46.104;19.656;2023-04-15T14:55:05;384.80;1792.00
56123;DHT22;42426;46.104;19.656;2023-04-15T14:57:32;384.80;1792.00
56123;DHT22;42426;46.104;19.656;2023-04-15T14:59:58;384.80;1792.00
56123;DHT22;42426;46.104;19.656;2023-04-15T15:02:27;384.80;1792.00
56123;DHT22;42426;46.104;19.656;2023-04-15T15:04:53;384.80;1792.00
56123;DHT22;42426;46.104;19.656;2023-04-15T15:07:22;384.70;1766.40
56123;DHT22;42426;46.104;19.656;2023-04-15T15:09:48;384.70;1792.00
56123;DHT22;42426;46.104;19.656;2023-04-15T15:12:16;384.70;1843.20
56123;DHT22;42426;46.104;19.656;2023-04-15T15:14:42;384.70;1817.60
56123;DHT22;42426;46.104;19.656;2023-04-15T15:17:08;384.70;1792.00
56123;DHT22;42426;46.104;19.656;2023-04-15T15:19:34;384.70;1792.00
56123;DHT22;42426;46.104;19.656;2023-04-15T15:22:00;384.70;1817.60
56123;DHT22;42426;46.104;19.656;2023-04-15T15:24:26;384.70;1792.00
56123;DHT22;42426;46.104;19.656;2023-04-15T15:26:51;384.70;1792.00
56123;DHT22;42426;46.104;19.656;2023-04-15T15:29:19;384.60;1817.60
56123;DHT22;42426;46.104;19.656;2023-04-15T15:31:44;384.60;1817.60
56123;DHT22;42426;46.104;19.656;2023-04-15T15:34:10;384.60;1817.60
56123;DHT22;42426;46.104;19.656;2023-04-15T15:36:36;384.60;1817.60
56123;DHT22;42426;46.104;19.656;2023-04-15T15:39:02;384.60;1817.60
56123;DHT22;42426;46.104;19.656;2023-04-15T15:41:28;384.60;1843.20
56123;DHT22;42426;46.104;19.656;2023-04-15T15:43:54;384.50;1843.20
56123;DHT22;42426;46.104;19.656;2023-04-15T15:46:20;384.50;1843.20
56123;DHT22;42426;46.104;19.656;2023-04-15T15:48:48;384.40;1843.20
56123;DHT22;42426;46.104;19.656;2023-04-15T15:51:14;384.40;1843.20
56123;DHT22;42426;46.104;19.656;2023-04-15T15:53:40;384.40;1843.20
56123;DHT22;42426;46.104;19.656;2023-04-15T15:56:05;384.40;1868.80
56123;DHT22;42426;46.104;19.656;2023-04-15T15:58:32;384.40;1843.20
56123;DHT22;42426;46.104;19.656;2023-04-15T16:00:58;384.30;1868.80
56123;DHT22;42426;46.104;19.656;2023-04-15T16:03:24;384.30;1843.20
56123;DHT22;42426;46.104;19.656;2023-04-15T16:05:50;384.30;1843.20
56123;DHT22;42426;46.104;19.656;2023-04-15T16:08:16;384.30;1843.20
56123;DHT22;42426;46.104;19.656;2023-04-15T16:10:49;384.30;1868.80
56123;DHT22;42426;46.104;19.656;2023-04-15T16:13:18;384.20;1868.80
56123;DHT22;42426;46.104;19.656;2023-04-15T16:15:44;384.20;1868.80
56123;DHT22;42426;46.104;19.656;2023-04-15T16:18:09;384.10;1868.80
56123;DHT22;42426;46.104;19.656;2023-04-15T16:20:37;384.10;1894.40
56123;DHT22;42426;46.104;19.656;2023-04-15T16:23:14;384.00;1894.40
56123;DHT22;42426;46.104;19.656;2023-04-15T16:25:43;384.00;1920.00
56123;DHT22;42426;46.104;19.656;2023-04-15T16:28:09;384.50;1945.60
56123;DHT22;42426;46.104;19.656;2023-04-15T16:30:36;384.00;1945.60
56123;DHT22;42426;46.104;19.656;2023-04-15T16:33:03;384.00;1920.00
56123;DHT22;42426;46.104;19.656;2023-04-15T16:35:29;384.00;1945.60